createdAt,value
2018-06-04T00:00:44.481Z,0
2018-06-04T00:01:53.346Z,0
2018-06-04T00:03:02.210Z,0
2018-06-04T00:04:11.351Z,0
2018-06-04T00:05:20.774Z,0
2018-06-04T00:06:29.635Z,0
2018-06-04T00:07:38.499Z,0
2018-06-04T00:08:47.361Z,0
2018-06-04T00:09:56.223Z,0
2018-06-04T00:11:05.233Z,0
2018-06-04T00:12:17.417Z,0
2018-06-04T00:13:26.282Z,0
2018-06-04T00:14:35.423Z,0
2018-06-04T00:15:44.291Z,0
2018-06-04T00:16:53.151Z,0
2018-06-04T00:18:02.016Z,0
2018-06-04T00:19:10.880Z,0
2018-06-04T00:20:19.742Z,0
2018-06-04T00:21:28.604Z,0
2018-06-04T00:22:37.465Z,0
2018-06-04T00:23:46.328Z,0
2018-06-04T00:24:55.186Z,0
2018-06-04T00:26:04.048Z,0
2018-06-04T00:27:12.912Z,0
2018-06-04T00:28:21.781Z,0
2018-06-04T00:29:30.922Z,0
2018-06-04T00:30:39.788Z,0
2018-06-04T00:31:48.653Z,0
2018-06-04T00:32:57.513Z,0
2018-06-04T00:34:06.525Z,0
2018-06-04T00:35:15.384Z,0
2018-06-04T00:36:24.244Z,0
2018-06-04T00:37:33.388Z,0
2018-06-04T00:38:42.251Z,0
2018-06-04T00:39:51.165Z,0
2018-06-04T00:41:00.033Z,0
2018-06-04T00:42:09.173Z,0
2018-06-04T00:43:18.034Z,0
2018-06-04T00:44:26.896Z,0
2018-06-04T00:45:36.309Z,0
2018-06-04T00:46:45.169Z,0
2018-06-04T00:47:54.308Z,0
2018-06-04T00:49:03.171Z,0
2018-06-04T00:50:12.034Z,0
2018-06-04T00:51:20.897Z,0
2018-06-04T00:52:29.762Z,0
2018-06-04T00:53:38.627Z,0
2018-06-04T00:54:47.486Z,0
2018-06-04T00:55:56.624Z,0
2018-06-04T00:57:05.913Z,0
2018-06-04T00:58:15.056Z,0
2018-06-04T00:59:24.203Z,0
2018-06-04T01:00:33.067Z,0
2018-06-04T01:01:41.929Z,0
2018-06-04T01:02:50.840Z,0
2018-06-04T01:03:59.705Z,0
2018-06-04T01:05:09.129Z,0
2018-06-04T01:06:18.273Z,0
2018-06-04T01:07:27.412Z,0
2018-06-04T01:08:36.374Z,0
2018-06-04T01:09:45.236Z,0
2018-06-04T01:10:54.096Z,0
2018-06-04T01:12:02.959Z,0
2018-06-04T01:13:11.823Z,0
2018-06-04T01:14:20.685Z,0
2018-06-04T01:15:29.547Z,0
2018-06-04T01:16:38.409Z,0
2018-06-04T01:17:47.269Z,0
2018-06-04T01:18:56.130Z,0
2018-06-04T01:20:05.142Z,0
2018-06-04T01:21:14.002Z,0
2018-06-04T01:22:22.864Z,0
2018-06-04T01:23:31.724Z,0
2018-06-04T01:24:40.589Z,0
2018-06-04T01:25:49.903Z,0
2018-06-04T01:26:58.765Z,0
2018-06-04T01:28:07.631Z,0
2018-06-04T01:29:16.496Z,0
2018-06-04T01:30:25.354Z,0
2018-06-04T01:31:34.565Z,0
2018-06-04T01:32:43.429Z,0
2018-06-04T01:33:52.292Z,0
2018-06-04T01:35:01.155Z,0
2018-06-04T01:36:10.292Z,0
2018-06-04T01:37:19.162Z,0
2018-06-04T01:38:28.023Z,0
2018-06-04T01:39:36.886Z,0
2018-06-04T01:40:46.023Z,0
2018-06-04T01:41:54.887Z,0
2018-06-04T01:43:04.078Z,0
2018-06-04T01:44:12.939Z,0
2018-06-04T01:45:21.801Z,0
2018-06-04T01:46:30.664Z,0
2018-06-04T01:47:39.807Z,0
2018-06-04T01:48:48.769Z,0
2018-06-04T01:49:57.630Z,0
2018-06-04T01:51:06.494Z,0
2018-06-04T01:52:15.358Z,0
2018-06-04T01:53:24.220Z,0
2018-06-04T01:54:33.232Z,0
2018-06-04T01:55:42.095Z,0
2018-06-04T01:56:50.958Z,0
2018-06-04T01:57:59.820Z,0
2018-06-04T01:59:08.956Z,0
2018-06-04T02:00:18.170Z,0
2018-06-04T02:01:27.031Z,0
2018-06-04T02:02:35.893Z,0
2018-06-04T02:03:44.758Z,0
2018-06-04T02:04:53.893Z,0
2018-06-04T02:06:02.757Z,0
2018-06-04T02:07:11.910Z,0
2018-06-04T02:08:20.763Z,0
2018-06-04T02:09:29.625Z,0
2018-06-04T02:10:38.487Z,0
2018-06-04T02:11:47.350Z,0
2018-06-04T02:12:56.210Z,0
2018-06-04T02:14:05.349Z,0
2018-06-04T02:15:14.208Z,0
2018-06-04T02:16:23.121Z,0
2018-06-04T02:17:32.990Z,0
2018-06-04T02:18:41.847Z,0
2018-06-04T02:19:50.713Z,0
2018-06-04T02:20:59.577Z,0
2018-06-04T02:22:08.439Z,0
2018-06-04T02:23:17.677Z,0
2018-06-04T02:24:26.537Z,0
2018-06-04T02:25:35.401Z,4
2018-06-04T02:26:44.262Z,4
2018-06-04T02:27:53.124Z,4
2018-06-04T02:29:02.380Z,0
2018-06-04T02:30:11.251Z,0
2018-06-04T02:31:20.384Z,4
2018-06-04T02:32:29.248Z,4
2018-06-04T02:33:38.128Z,4
2018-06-04T02:34:47.431Z,4
2018-06-04T02:35:56.576Z,0
2018-06-04T02:37:05.996Z,4
2018-06-04T02:38:15.417Z,8
2018-06-04T02:39:24.567Z,4
2018-06-04T02:40:34.039Z,4
2018-06-04T02:41:43.461Z,8
2018-06-04T02:42:52.322Z,8
2018-06-04T02:44:01.746Z,12
2018-06-04T02:45:10.892Z,12
2018-06-04T02:46:20.386Z,12
2018-06-04T02:47:29.523Z,16
2018-06-04T02:48:38.660Z,20
2018-06-04T02:49:47.860Z,20
2018-06-04T02:50:56.956Z,24
2018-06-04T02:52:06.234Z,24
2018-06-04T02:53:15.377Z,28
2018-06-04T02:54:24.530Z,32
2018-06-04T02:55:33.401Z,36
2018-06-04T02:56:42.540Z,40
2018-06-04T02:57:51.881Z,40
2018-06-04T02:59:01.024Z,44
2018-06-04T03:00:09.886Z,44
2018-06-04T03:01:18.751Z,44
2018-06-04T03:02:27.613Z,48
2018-06-04T03:03:37.120Z,48
2018-06-04T03:04:46.259Z,56
2018-06-04T03:05:55.125Z,60
2018-06-04T03:07:04.270Z,68
2018-06-04T03:08:13.412Z,80
2018-06-04T03:09:22.628Z,88
2018-06-04T03:10:31.768Z,104
2018-06-04T03:11:40.910Z,108
2018-06-04T03:12:49.775Z,116
2018-06-04T03:13:58.929Z,120
2018-06-04T03:15:08.498Z,124
2018-06-04T03:16:17.928Z,124
2018-06-04T03:17:26.788Z,132
2018-06-04T03:18:35.933Z,152
2018-06-04T03:19:44.802Z,168
2018-06-04T03:20:54.091Z,180
2018-06-04T03:22:03.241Z,180
2018-06-04T03:23:12.379Z,192
2018-06-04T03:24:21.578Z,200
2018-06-04T03:25:30.436Z,204
2018-06-04T03:26:39.455Z,212
2018-06-04T03:27:48.316Z,212
2018-06-04T03:28:57.177Z,200
2018-06-04T03:30:06.320Z,180
2018-06-04T03:31:15.199Z,168
2018-06-04T03:32:24.694Z,172
2018-06-04T03:33:33.563Z,184
2018-06-04T03:34:42.748Z,200
2018-06-04T03:35:51.609Z,220
2018-06-04T03:37:00.471Z,240
2018-06-04T03:38:09.482Z,240
2018-06-04T03:39:18.342Z,252
2018-06-04T03:40:27.203Z,260
2018-06-04T03:41:36.341Z,272
2018-06-04T03:42:45.202Z,316
2018-06-04T03:43:54.391Z,372
2018-06-04T03:45:03.551Z,392
2018-06-04T03:46:12.690Z,420
2018-06-04T03:47:21.551Z,436
2018-06-04T03:48:30.689Z,456
2018-06-04T03:49:39.902Z,436
2018-06-04T03:50:49.042Z,416
2018-06-04T03:51:57.910Z,440
2018-06-04T03:53:07.056Z,424
2018-06-04T03:54:15.916Z,432
2018-06-04T03:55:24.780Z,440
2018-06-04T03:56:33.648Z,412
2018-06-04T03:57:42.511Z,416
2018-06-04T03:58:51.655Z,500
2018-06-04T04:00:00.521Z,564
2018-06-04T04:01:09.532Z,612
2018-06-04T04:02:18.672Z,648
2018-06-04T04:03:27.813Z,660
2018-06-04T04:04:36.675Z,664
2018-06-04T04:05:45.539Z,640
2018-06-04T04:06:54.453Z,612
2018-06-04T04:08:03.319Z,612
2018-06-04T04:09:12.461Z,648
2018-06-04T04:10:21.320Z,672
2018-06-04T04:11:30.182Z,692
2018-06-04T04:12:39.376Z,724
2018-06-04T04:13:48.239Z,776
2018-06-04T04:14:57.105Z,784
2018-06-04T04:16:05.964Z,812
2018-06-04T04:17:14.838Z,908
2018-06-04T04:18:23.846Z,972
2018-06-04T04:19:32.710Z,948
2018-06-04T04:20:41.573Z,972
2018-06-04T04:21:50.439Z,1032
2018-06-04T04:22:59.302Z,1084
2018-06-04T04:24:08.321Z,1092
2018-06-04T04:25:17.184Z,1036
2018-06-04T04:26:26.049Z,996
2018-06-04T04:27:35.195Z,984
2018-06-04T04:28:44.053Z,960
2018-06-04T04:29:53.265Z,1024
2018-06-04T04:31:02.130Z,1164
2018-06-04T04:32:11.002Z,1148
2018-06-04T04:33:19.857Z,1068
2018-06-04T04:34:28.996Z,1088
2018-06-04T04:35:38.110Z,1056
2018-06-04T04:36:47.250Z,1024
2018-06-04T04:37:56.463Z,1008
2018-06-04T04:39:05.603Z,1004
2018-06-04T04:40:14.468Z,1128
2018-06-04T04:41:23.530Z,1212
2018-06-04T04:42:32.391Z,1240
2018-06-04T04:43:41.256Z,1324
2018-06-04T04:44:50.117Z,1388
2018-06-04T04:45:58.978Z,1336
2018-06-04T04:47:07.842Z,1316
2018-06-04T04:48:16.706Z,1264
2018-06-04T04:49:25.567Z,1216
2018-06-04T04:50:34.430Z,1252
2018-06-04T04:51:43.296Z,1268
2018-06-04T04:52:52.162Z,1292
2018-06-04T04:54:01.028Z,1328
2018-06-04T04:55:09.891Z,1280
2018-06-04T04:56:19.030Z,1156
2018-06-04T04:57:27.894Z,1156
2018-06-04T04:58:36.756Z,1164
2018-06-04T04:59:45.632Z,1168
2018-06-04T05:00:54.486Z,1128
2018-06-04T05:02:03.359Z,1084
2018-06-04T05:03:12.368Z,1012
2018-06-04T05:04:21.231Z,976
2018-06-04T05:05:30.094Z,972
2018-06-04T05:06:38.957Z,884
2018-06-04T05:07:48.656Z,788
2018-06-04T05:08:57.518Z,812
2018-06-04T05:10:06.383Z,912
2018-06-04T05:11:15.520Z,1044
2018-06-04T05:12:24.662Z,1080
2018-06-04T05:13:33.804Z,948
2018-06-04T05:14:42.668Z,880
2018-06-04T05:15:51.532Z,856
2018-06-04T05:17:00.393Z,896
2018-06-04T05:18:09.261Z,976
2018-06-04T05:19:18.402Z,1184
2018-06-04T05:20:27.264Z,1540
2018-06-04T05:21:36.405Z,1928
2018-06-04T05:22:45.274Z,2148
2018-06-04T05:23:54.248Z,2208
2018-06-04T05:25:03.109Z,2304
2018-06-04T05:26:11.973Z,2316
2018-06-04T05:27:20.839Z,2252
2018-06-04T05:28:29.976Z,2032
2018-06-04T05:29:38.938Z,1744
2018-06-04T05:30:47.801Z,1720
2018-06-04T05:31:57.964Z,1872
2018-06-04T05:33:06.845Z,2316
2018-06-04T05:34:16.157Z,2408
2018-06-04T05:35:25.019Z,2368
2018-06-04T05:36:33.883Z,2692
2018-06-04T05:37:43.030Z,3184
2018-06-04T05:38:51.884Z,3516
2018-06-04T05:40:00.746Z,3852
2018-06-04T05:41:09.768Z,3808
2018-06-04T05:42:18.958Z,3940
2018-06-04T05:43:28.105Z,3428
2018-06-04T05:44:36.968Z,3116
2018-06-04T05:45:46.111Z,2532
2018-06-04T05:46:55.125Z,2372
2018-06-04T05:48:04.267Z,2288
2018-06-04T05:49:13.132Z,2588
2018-06-04T05:50:22.284Z,3064
2018-06-04T05:51:31.428Z,2392
2018-06-04T05:52:40.342Z,2304
2018-06-04T05:53:49.481Z,2936
2018-06-04T05:54:58.345Z,3884
2018-06-04T05:56:07.205Z,3916
2018-06-04T05:57:16.071Z,3256
2018-06-04T05:58:25.136Z,2836
2018-06-04T05:59:33.999Z,3592
2018-06-04T06:00:42.861Z,3636
2018-06-04T06:01:52.105Z,3192
2018-06-04T06:03:00.927Z,2736
2018-06-04T06:04:10.517Z,2908
2018-06-04T06:05:19.381Z,2804
2018-06-04T06:06:28.248Z,2716
2018-06-04T06:07:37.116Z,2692
2018-06-04T06:08:46.256Z,2696
2018-06-04T06:09:55.788Z,2944
2018-06-04T06:11:04.653Z,2516
2018-06-04T06:12:13.520Z,2400
2018-06-04T06:13:22.379Z,3068
2018-06-04T06:14:31.644Z,2704
2018-06-04T06:15:40.500Z,2556
2018-06-04T06:16:49.374Z,2400
2018-06-04T06:17:58.235Z,2680
2018-06-04T06:19:07.104Z,2888
2018-06-04T06:20:15.967Z,2536
2018-06-04T06:21:24.931Z,3140
2018-06-04T06:22:33.794Z,2896
2018-06-04T06:23:42.659Z,3400
2018-06-04T06:24:51.520Z,4484
2018-06-04T06:26:00.946Z,4732
2018-06-04T06:27:09.909Z,3924
2018-06-04T06:28:18.772Z,4128
2018-06-04T06:29:27.637Z,3516
2018-06-04T06:30:36.779Z,3380
2018-06-04T06:31:45.930Z,3016
2018-06-04T06:32:54.822Z,3604
2018-06-04T06:34:03.685Z,5044
2018-06-04T06:35:12.552Z,4952
2018-06-04T06:36:21.424Z,3812
2018-06-04T06:37:30.291Z,3292
2018-06-04T06:38:39.152Z,3176
2018-06-04T06:39:48.015Z,4012
2018-06-04T06:40:56.879Z,3332
2018-06-04T06:42:05.741Z,3208
2018-06-04T06:43:15.905Z,3888
2018-06-04T06:44:25.415Z,4280
2018-06-04T06:45:34.281Z,3580
2018-06-04T06:46:43.145Z,4408
2018-06-04T06:47:52.292Z,4336
2018-06-04T06:49:01.157Z,4228
2018-06-04T06:50:10.149Z,3892
2018-06-04T06:51:18.986Z,3260
2018-06-04T06:52:27.848Z,2440
2018-06-04T06:53:36.711Z,2788
2018-06-04T06:54:45.576Z,3344
2018-06-04T06:55:54.638Z,3348
2018-06-04T06:57:03.512Z,3364
2018-06-04T06:58:12.652Z,3416
2018-06-04T06:59:21.516Z,3320
2018-06-04T07:00:30.658Z,3560
2018-06-04T07:01:39.951Z,4296
2018-06-04T07:02:49.107Z,3448
2018-06-04T07:03:57.964Z,4128
2018-06-04T07:05:06.827Z,4752
2018-06-04T07:06:15.687Z,5080
2018-06-04T07:07:24.599Z,3816
2018-06-04T07:08:33.463Z,3516
2018-06-04T07:09:42.325Z,3916
2018-06-04T07:10:51.186Z,4028
2018-06-04T07:12:00.050Z,3860
2018-06-04T07:13:09.343Z,3420
2018-06-04T07:14:18.229Z,3464
2018-06-04T07:15:27.808Z,3580
2018-06-04T07:16:36.672Z,3808
2018-06-04T07:17:45.816Z,3796
2018-06-04T07:18:55.031Z,4080
2018-06-04T07:20:03.895Z,4256
2018-06-04T07:21:12.760Z,3980
2018-06-04T07:22:21.624Z,4292
2018-06-04T07:23:30.486Z,4128
2018-06-04T07:24:39.703Z,4304
2018-06-04T07:25:48.565Z,5272
2018-06-04T07:26:57.432Z,6004
2018-06-04T07:28:06.291Z,6464
2018-06-04T07:29:15.156Z,6436
2018-06-04T07:30:24.120Z,6692
2018-06-04T07:31:33.263Z,6824
2018-06-04T07:32:42.129Z,6768
2018-06-04T07:33:50.991Z,7592
2018-06-04T07:34:59.854Z,7612
2018-06-04T07:36:09.102Z,6596
2018-06-04T07:37:17.963Z,7176
2018-06-04T07:38:26.826Z,7260
2018-06-04T07:39:35.690Z,7900
2018-06-04T07:40:44.835Z,7252
2018-06-04T07:41:54.003Z,6256
2018-06-04T07:43:02.888Z,5868
2018-06-04T07:44:11.737Z,6312
2018-06-04T07:45:20.598Z,5372
2018-06-04T07:46:29.460Z,5132
2018-06-04T07:47:38.428Z,4324
2018-06-04T07:48:47.574Z,4340
2018-06-04T07:49:56.458Z,4480
2018-06-04T07:51:05.639Z,4204
2018-06-04T07:52:14.778Z,4296
2018-06-04T07:53:23.791Z,4092
2018-06-04T07:54:32.657Z,4000
2018-06-04T07:55:41.571Z,3952
2018-06-04T07:56:50.436Z,3900
2018-06-04T07:57:59.582Z,4108
2018-06-04T07:59:08.701Z,4440
2018-06-04T08:00:17.848Z,4660
2018-06-04T08:01:26.716Z,4992
2018-06-04T08:02:35.858Z,4904
2018-06-04T08:03:44.725Z,4912
2018-06-04T08:04:53.639Z,5028
2018-06-04T08:06:02.501Z,5372
2018-06-04T08:07:11.366Z,5532
2018-06-04T08:08:20.232Z,5776
2018-06-04T08:09:29.665Z,5468
2018-06-04T08:10:38.576Z,5448
2018-06-04T08:11:47.438Z,5520
2018-06-04T08:12:56.299Z,5660
2018-06-04T08:14:05.448Z,5188
2018-06-04T08:15:14.593Z,4976
2018-06-04T08:16:23.785Z,5220
2018-06-04T08:17:32.649Z,4884
2018-06-04T08:18:41.514Z,4556
2018-06-04T08:19:50.379Z,4188
2018-06-04T08:20:59.244Z,4068
2018-06-04T08:22:09.193Z,4580
2018-06-04T08:23:18.064Z,5576
2018-06-04T08:24:26.925Z,5152
2018-06-04T08:25:35.792Z,4844
2018-06-04T08:26:44.660Z,5004
2018-06-04T08:27:53.525Z,5768
2018-06-04T08:29:02.672Z,5996
2018-06-04T08:30:11.533Z,6508
2018-06-04T08:31:20.400Z,6032
2018-06-04T08:32:29.541Z,6536
2018-06-04T08:33:38.404Z,7012
2018-06-04T08:34:47.270Z,7252
2018-06-04T08:35:56.136Z,7340
2018-06-04T08:37:05.275Z,7904
2018-06-04T08:38:14.137Z,7516
2018-06-04T08:39:23.253Z,7864
2018-06-04T08:40:32.118Z,7844
2018-06-04T08:41:41.258Z,7640
2018-06-04T08:42:50.404Z,8184
2018-06-04T08:43:59.269Z,7588
2018-06-04T08:45:08.769Z,7668
2018-06-04T08:46:17.630Z,8600
2018-06-04T08:47:26.498Z,8648
2018-06-04T08:48:35.637Z,8228
2018-06-04T08:49:44.501Z,8380
2018-06-04T08:50:54.035Z,8488
2018-06-04T08:52:02.859Z,7912
2018-06-04T08:53:11.727Z,7864
2018-06-04T08:54:20.594Z,7140
2018-06-04T08:55:30.020Z,6932
2018-06-04T08:56:39.029Z,7092
2018-06-04T08:57:47.901Z,7652
2018-06-04T08:58:57.323Z,7560
2018-06-04T09:00:06.470Z,7928
2018-06-04T09:01:15.340Z,8316
2018-06-04T09:02:24.349Z,8584
2018-06-04T09:03:33.490Z,7836
2018-06-04T09:04:42.628Z,7092
2018-06-04T09:05:51.494Z,7972
2018-06-04T09:07:00.361Z,7936
2018-06-04T09:08:09.226Z,8492
2018-06-04T09:09:18.094Z,9400
2018-06-04T09:10:27.238Z,9532
2018-06-04T09:11:36.381Z,10188
2018-06-04T09:12:45.253Z,9480
2018-06-04T09:13:54.401Z,9116
2018-06-04T09:15:03.544Z,8988
2018-06-04T09:16:12.406Z,9972
2018-06-04T09:17:21.271Z,10352
2018-06-04T09:18:30.138Z,10904
2018-06-04T09:19:39.352Z,10512
2018-06-04T09:20:48.217Z,9324
2018-06-04T09:21:57.096Z,8316
2018-06-04T09:23:06.266Z,7232
2018-06-04T09:24:15.132Z,6852
2018-06-04T09:25:24.098Z,6544
2018-06-04T09:26:32.962Z,7460
2018-06-04T09:27:41.826Z,6860
2018-06-04T09:28:50.691Z,6308
2018-06-04T09:29:59.558Z,6200
2018-06-04T09:31:08.762Z,6028
2018-06-04T09:32:18.191Z,6312
2018-06-04T09:33:27.333Z,6388
2018-06-04T09:34:36.195Z,5900
2018-06-04T09:35:45.061Z,5796
2018-06-04T09:36:53.976Z,5620
2018-06-04T09:38:02.839Z,5576
2018-06-04T09:39:11.981Z,5792
2018-06-04T09:40:20.854Z,6136
2018-06-04T09:41:29.718Z,6040
2018-06-04T09:42:38.630Z,6744
2018-06-04T09:43:47.498Z,6796
2018-06-04T09:44:56.664Z,7352
2018-06-04T09:46:05.800Z,8196
2018-06-04T09:47:14.665Z,10244
2018-06-04T09:48:23.530Z,8820
2018-06-04T09:49:32.393Z,8492
2018-06-04T09:50:41.255Z,9288
2018-06-04T09:51:50.120Z,8792
2018-06-04T09:52:58.984Z,8396
2018-06-04T09:54:08.278Z,7244
2018-06-04T09:55:17.758Z,6952
2018-06-04T09:56:26.623Z,7400
2018-06-04T09:57:35.487Z,9016
2018-06-04T09:58:44.352Z,11004
2018-06-04T09:59:53.318Z,12696
2018-06-04T10:01:02.182Z,12224
2018-06-04T10:02:11.046Z,11212
2018-06-04T10:03:19.915Z,10480
2018-06-04T10:04:28.782Z,10508
2018-06-04T10:05:37.646Z,9716
2018-06-04T10:06:46.788Z,8276
2018-06-04T10:07:55.654Z,9336
2018-06-04T10:09:04.803Z,8464
2018-06-04T10:10:13.945Z,7268
2018-06-04T10:11:23.210Z,7248
2018-06-04T10:12:32.081Z,7028
2018-06-04T10:13:40.946Z,8056
2018-06-04T10:14:49.814Z,9868
2018-06-04T10:15:58.684Z,11636
2018-06-04T10:17:07.598Z,11736
2018-06-04T10:18:16.464Z,11060
2018-06-04T10:19:25.621Z,10472
2018-06-04T10:20:34.488Z,10264
2018-06-04T10:21:43.356Z,9548
2018-06-04T10:22:52.553Z,9388
2018-06-04T10:24:01.704Z,8992
2018-06-04T10:25:10.849Z,8376
2018-06-04T10:26:19.717Z,7608
2018-06-04T10:27:28.582Z,6916
2018-06-04T10:28:37.549Z,7560
2018-06-04T10:29:46.689Z,6860
2018-06-04T10:30:55.554Z,6584
2018-06-04T10:32:04.421Z,6772
2018-06-04T10:33:13.291Z,6684
2018-06-04T10:34:22.203Z,6632
2018-06-04T10:35:31.349Z,6680
2018-06-04T10:36:40.216Z,6780
2018-06-04T10:37:49.084Z,7156
2018-06-04T10:38:57.948Z,7532
2018-06-04T10:40:06.814Z,8056
2018-06-04T10:41:15.955Z,8212
2018-06-04T10:42:24.822Z,8180
2018-06-04T10:43:33.688Z,8652
2018-06-04T10:44:42.550Z,9056
2018-06-04T10:45:51.866Z,10624
2018-06-04T10:47:00.746Z,12076
2018-06-04T10:48:09.597Z,11472
2018-06-04T10:49:18.465Z,9528
2018-06-04T10:50:27.338Z,9696
2018-06-04T10:51:36.555Z,9028
2018-06-04T10:52:45.421Z,9288
2018-06-04T10:53:55.169Z,9292
2018-06-04T10:55:04.047Z,8784
2018-06-04T10:56:12.923Z,8548
2018-06-04T10:57:22.038Z,8536
2018-06-04T10:58:30.903Z,8428
2018-06-04T10:59:39.815Z,8180
2018-06-04T11:00:48.679Z,7992
2018-06-04T11:01:57.663Z,8164
2018-06-04T11:03:06.936Z,8444
2018-06-04T11:04:15.793Z,9052
2018-06-04T11:05:24.658Z,9892
2018-06-04T11:06:33.522Z,9796
2018-06-04T11:07:42.386Z,9024
2018-06-04T11:08:51.300Z,8784
2018-06-04T11:10:00.257Z,8516
2018-06-04T11:11:09.127Z,7940
2018-06-04T11:12:17.989Z,7132
2018-06-04T11:13:27.133Z,7192
2018-06-04T11:14:36.052Z,7612
2018-06-04T11:15:44.918Z,7036
2018-06-04T11:16:53.847Z,7568
2018-06-04T11:18:02.728Z,8176
2018-06-04T11:19:12.149Z,8208
2018-06-04T11:20:21.464Z,7176
2018-06-04T11:21:30.334Z,6520
2018-06-04T11:22:39.197Z,6644
2018-06-04T11:23:48.068Z,6720
2018-06-04T11:24:56.937Z,6552
2018-06-04T11:26:06.180Z,6896
2018-06-04T11:27:15.048Z,7344
2018-06-04T11:28:24.194Z,7840
2018-06-04T11:29:33.090Z,7640
2018-06-04T11:30:42.794Z,6832
2018-06-04T11:31:51.810Z,6572
2018-06-04T11:33:01.014Z,7068
2018-06-04T11:34:09.879Z,7324
2018-06-04T11:35:18.745Z,6736
2018-06-04T11:36:27.611Z,6492
2018-06-04T11:37:36.583Z,6712
2018-06-04T11:38:45.736Z,6880
2018-06-04T11:39:55.175Z,6964
2018-06-04T11:41:04.035Z,7260
2018-06-04T11:42:12.907Z,7568
2018-06-04T11:43:21.832Z,7980
2018-06-04T11:44:30.863Z,8144
2018-06-04T11:45:40.046Z,8116
2018-06-04T11:46:48.918Z,8208
2018-06-04T11:47:57.781Z,7976
2018-06-04T11:49:06.754Z,7488
2018-06-04T11:50:15.617Z,7840
2018-06-04T11:51:24.483Z,8100
2018-06-04T11:52:33.352Z,8392
2018-06-04T11:53:42.249Z,8728
2018-06-04T11:54:51.118Z,8712
2018-06-04T11:55:59.986Z,8500
2018-06-04T11:57:09.132Z,7644
2018-06-04T11:58:17.997Z,7096
2018-06-04T11:59:26.876Z,7504
2018-06-04T12:00:36.041Z,7824
2018-06-04T12:01:45.225Z,8232
2018-06-04T12:02:54.051Z,8852
2018-06-04T12:04:03.203Z,9644
2018-06-04T12:05:12.493Z,10156
2018-06-04T12:06:21.838Z,10276
2018-06-04T12:07:31.419Z,10700
2018-06-04T12:08:40.577Z,11736
2018-06-04T12:09:49.447Z,14512
2018-06-04T12:10:58.313Z,17888
2018-06-04T12:12:07.530Z,20224
2018-06-04T12:13:16.686Z,20608
2018-06-04T12:14:25.681Z,18656
2018-06-04T12:15:34.548Z,18304
2018-06-04T12:16:43.686Z,19136
2018-06-04T12:17:53.003Z,21632
2018-06-04T12:19:01.869Z,17792
2018-06-04T12:20:10.734Z,12840
2018-06-04T12:21:19.645Z,11968
2018-06-04T12:22:28.665Z,11996
2018-06-04T12:23:37.539Z,9864
2018-06-04T12:24:46.807Z,9076
2018-06-04T12:25:56.074Z,9400
2018-06-04T12:27:04.994Z,9744
2018-06-04T12:28:13.889Z,9972
2018-06-04T12:29:23.414Z,9712
2018-06-04T12:30:32.430Z,9720
2018-06-04T12:31:41.295Z,9824
2018-06-04T12:32:50.158Z,9228
2018-06-04T12:33:59.071Z,9064
2018-06-04T12:35:08.465Z,9236
2018-06-04T12:36:17.348Z,9000
2018-06-04T12:37:26.218Z,8420
2018-06-04T12:38:35.085Z,7840
2018-06-04T12:39:44.232Z,7580
2018-06-04T12:40:53.247Z,7392
2018-06-04T12:42:02.117Z,7500
2018-06-04T12:43:11.539Z,7772
2018-06-04T12:44:20.406Z,8220
2018-06-04T12:45:29.274Z,9008
2018-06-04T12:46:38.143Z,8108
2018-06-04T12:47:47.010Z,6760
2018-06-04T12:48:55.878Z,6128
2018-06-04T12:50:04.846Z,6072
2018-06-04T12:51:13.710Z,6304
2018-06-04T12:52:22.629Z,7112
2018-06-04T12:53:31.502Z,7904
2018-06-04T12:54:40.365Z,7788
2018-06-04T12:55:49.235Z,7060
2018-06-04T12:56:58.102Z,6724
2018-06-04T12:58:07.217Z,6416
2018-06-04T12:59:16.360Z,6508
2018-06-04T13:00:25.498Z,6872
2018-06-04T13:01:34.363Z,7364
2018-06-04T13:02:43.228Z,7908
2018-06-04T13:03:52.648Z,8676
2018-06-04T13:05:01.517Z,9328
2018-06-04T13:06:10.384Z,9616
2018-06-04T13:07:19.250Z,9684
2018-06-04T13:08:28.113Z,9708
2018-06-04T13:09:37.028Z,9364
2018-06-04T13:10:45.893Z,9328
2018-06-04T13:11:54.759Z,9480
2018-06-04T13:13:03.623Z,10056
2018-06-04T13:14:12.490Z,10500
2018-06-04T13:15:21.683Z,10488
2018-06-04T13:16:30.550Z,10476
2018-06-04T13:17:39.695Z,10196
2018-06-04T13:18:48.562Z,8956
2018-06-04T13:19:57.435Z,7552
2018-06-04T13:21:06.926Z,6708
2018-06-04T13:22:15.793Z,6600
2018-06-04T13:23:24.681Z,6844
2018-06-04T13:24:33.823Z,6100
2018-06-04T13:25:42.687Z,5704
2018-06-04T13:26:51.603Z,5512
2018-06-04T13:28:00.468Z,5412
2018-06-04T13:29:09.614Z,5256
2018-06-04T13:30:18.754Z,4884
2018-06-04T13:31:27.896Z,4716
2018-06-04T13:32:36.764Z,5004
2018-06-04T13:33:45.974Z,6288
2018-06-04T13:34:54.842Z,7400
2018-06-04T13:36:03.709Z,7976
2018-06-04T13:37:12.941Z,8260
2018-06-04T13:38:21.955Z,7740
2018-06-04T13:39:31.178Z,6740
2018-06-04T13:40:40.037Z,6724
2018-06-04T13:41:48.903Z,6592
2018-06-04T13:42:57.768Z,6396
2018-06-04T13:44:06.686Z,6692
2018-06-04T13:45:15.554Z,7416
2018-06-04T13:46:24.422Z,7812
2018-06-04T13:47:33.851Z,7996
2018-06-04T13:48:42.713Z,8088
2018-06-04T13:49:51.732Z,8104
2018-06-04T13:51:00.595Z,8172
2018-06-04T13:52:09.741Z,8128
2018-06-04T13:53:18.610Z,7604
2018-06-04T13:54:27.476Z,7072
2018-06-04T13:55:36.392Z,6724
2018-06-04T13:56:45.256Z,6964
2018-06-04T13:57:54.270Z,7052
2018-06-04T13:59:03.206Z,7180
2018-06-04T14:00:12.073Z,7464
2018-06-04T14:01:21.264Z,7716
2018-06-04T14:02:30.130Z,7516
2018-06-04T14:03:38.994Z,7424
2018-06-04T14:04:47.860Z,7148
2018-06-04T14:05:57.001Z,7872
2018-06-04T14:07:05.869Z,8540
2018-06-04T14:08:14.740Z,9736
2018-06-04T14:09:23.878Z,10532
2018-06-04T14:10:32.749Z,10984
2018-06-04T14:11:42.104Z,11104
2018-06-04T14:12:50.968Z,10788
2018-06-04T14:13:59.833Z,10356
2018-06-04T14:15:08.698Z,10328
2018-06-04T14:16:17.563Z,10752
2018-06-04T14:17:26.430Z,11216
2018-06-04T14:18:35.570Z,11116
2018-06-04T14:19:44.435Z,10588
2018-06-04T14:20:53.578Z,9848
2018-06-04T14:22:02.648Z,8300
2018-06-04T14:23:11.790Z,7864
2018-06-04T14:24:20.714Z,7684
2018-06-04T14:25:29.581Z,6824
2018-06-04T14:26:39.952Z,7076
2018-06-04T14:27:49.283Z,6412
2018-06-04T14:28:58.770Z,5588
2018-06-04T14:30:07.914Z,5084
2018-06-04T14:31:16.783Z,4696
2018-06-04T14:32:26.021Z,4436
2018-06-04T14:33:35.171Z,4260
2018-06-04T14:34:44.039Z,4252
2018-06-04T14:35:53.208Z,4444
2018-06-04T14:37:02.360Z,4284
2018-06-04T14:38:11.666Z,4376
2018-06-04T14:39:20.806Z,3920
2018-06-04T14:40:29.671Z,3792
2018-06-04T14:41:38.662Z,3792
2018-06-04T14:42:47.539Z,3864
2018-06-04T14:43:56.456Z,4064
2018-06-04T14:45:05.411Z,4328
2018-06-04T14:46:14.601Z,4340
2018-06-04T14:47:23.469Z,4676
2018-06-04T14:48:32.336Z,4496
2018-06-04T14:49:41.595Z,5064
2018-06-04T14:50:50.953Z,5288
2018-06-04T14:52:00.398Z,5400
2018-06-04T14:53:09.377Z,6504
2018-06-04T14:54:18.536Z,7816
2018-06-04T14:55:27.749Z,9996
2018-06-04T14:56:36.653Z,12400
2018-06-04T14:57:45.842Z,12048
2018-06-04T14:58:54.995Z,10492
2018-06-04T15:00:03.961Z,8692
2018-06-04T15:01:13.106Z,7868
2018-06-04T15:02:21.973Z,7452
2018-06-04T15:03:31.152Z,6868
2018-06-04T15:04:40.025Z,7044
2018-06-04T15:05:48.918Z,7252
2018-06-04T15:06:58.435Z,7312
2018-06-04T15:08:07.863Z,6060
2018-06-04T15:09:16.786Z,5172
2018-06-04T15:10:26.030Z,4824
2018-06-04T15:11:34.915Z,4952
2018-06-04T15:12:44.097Z,5220
2018-06-04T15:13:53.309Z,5292
2018-06-04T15:15:02.679Z,5784
2018-06-04T15:16:11.914Z,5856
2018-06-04T15:17:21.402Z,5196
2018-06-04T15:18:31.114Z,5116
2018-06-04T15:19:40.535Z,5224
2018-06-04T15:20:50.042Z,5504
2018-06-04T15:21:58.962Z,5584
2018-06-04T15:23:08.103Z,5700
2018-06-04T15:24:17.485Z,6148
2018-06-04T15:25:26.509Z,6176
2018-06-04T15:26:35.379Z,5788
2018-06-04T15:27:44.342Z,5860
2018-06-04T15:28:53.504Z,5228
2018-06-04T15:30:02.478Z,4908
2018-06-04T15:31:11.332Z,5404
2018-06-04T15:32:20.542Z,5084
2018-06-04T15:33:29.684Z,5320
2018-06-04T15:34:38.547Z,6680
2018-06-04T15:35:47.565Z,7392
2018-06-04T15:36:56.709Z,7812